Terminal Aerodrome Forecast
Issued by NWS Twin Cities, MN

Home | Current Version | Previous Version | Text Only | Print | Product List | Glossary Off
Versions: 1 2 3 4 5 6 7 8 9 10 11 12 13 14 15 16 17 18 19 20 21 22 23 24 25 26 27 28 29

000
FTUS43 KMPX 262056 AAB
TAFMSP
TAF AMD
KMSP 262056Z 2621/2724 06012KT P6SM OVC020
     FM270400 08014G20KT P6SM OVC030
     FM270800 08015G22KT P6SM OVC040
     FM271500 08017G25KT P6SM SCT040 BKN100
     FM272000 08016G24KT 4SM -RA BR BKN025=

USA.gov is the U.S. government's official web portal to all federal, state and local government web resources and services.